createdAt,value
2022-11-05T00:00:10.303Z,8.73
2022-11-05T00:05:16.607Z,8.04
2022-11-05T00:10:22.779Z,8.66
2022-11-05T00:16:12.768Z,8.36
2022-11-05T00:21:18.890Z,8.54
2022-11-05T00:26:25.180Z,9.08
2022-11-05T00:31:31.266Z,7.18
2022-11-05T00:36:37.441Z,8.22
2022-11-05T00:41:43.557Z,6.26
2022-11-05T00:46:49.808Z,8.49
2022-11-05T00:51:55.886Z,6.99
2022-11-05T00:57:04.768Z,8.35
2022-11-05T01:02:07.924Z,8.24
2022-11-05T01:07:13.961Z,7.04
2022-11-05T01:12:20.160Z,7.55
2022-11-05T01:17:26.411Z,8.80
2022-11-05T01:22:32.490Z,7.42
2022-11-05T01:27:38.766Z,10.01
2022-11-05T01:32:44.845Z,7.08
2022-11-05T01:37:51.295Z,8.84
2022-11-05T01:42:57.347Z,7.07
2022-11-05T01:48:03.497Z,8.38
2022-11-05T01:53:09.826Z,6.37
2022-11-05T01:58:15.921Z,7.70
2022-11-05T02:03:22.074Z,5.79
2022-11-05T02:08:28.273Z,7.86
2022-11-05T02:13:34.668Z,9.68
2022-11-05T02:18:40.963Z,8.36
2022-11-05T02:23:47.095Z,9.82
2022-11-05T02:28:53.313Z,11.57
2022-11-05T02:33:59.642Z,8.43
2022-11-05T02:39:05.901Z,7.50
2022-11-05T02:44:11.961Z,7.48
2022-11-05T02:49:18.558Z,7.24
2022-11-05T02:54:24.629Z,7.02
2022-11-05T02:59:31.221Z,9.16
2022-11-05T03:04:37.308Z,8.07
2022-11-05T03:09:43.451Z,5.54
2022-11-05T03:14:49.502Z,7.04
2022-11-05T03:19:55.698Z,8.84
2022-11-05T03:25:01.726Z,6.69
2022-11-05T03:30:07.988Z,7.83
2022-11-05T03:35:14.175Z,7.52
2022-11-05T03:40:20.365Z,6.16
2022-11-05T03:45:27.320Z,5.75
2022-11-05T03:50:37.143Z,9.15
2022-11-05T03:55:39.057Z,6.39
2022-11-05T04:00:45.247Z,6.91
2022-11-05T04:05:51.316Z,5.91
2022-11-05T04:10:57.487Z,9.37
2022-11-05T04:16:03.529Z,10.51
2022-11-05T04:21:09.795Z,8.11
2022-11-05T04:26:15.853Z,6.77
2022-11-05T04:31:22.017Z,7.11
2022-11-05T04:36:28.075Z,6.63
2022-11-05T04:41:34.528Z,3.97
2022-11-05T04:46:40.600Z,10.00
2022-11-05T04:51:46.820Z,7.61
2022-11-05T04:56:52.951Z,7.08
2022-11-05T05:01:59.265Z,8.11
2022-11-05T05:07:05.208Z,7.96
2022-11-05T05:12:11.419Z,6.86
2022-11-05T05:17:17.496Z,6.81
2022-11-05T05:22:23.998Z,7.23
2022-11-05T05:27:30.067Z,7.95
2022-11-05T05:32:37.010Z,7.26
2022-11-05T05:37:43.404Z,5.58
2022-11-05T05:42:50.381Z,5.87
2022-11-05T05:47:57.221Z,4.45
2022-11-05T05:53:03.747Z,6.92
2022-11-05T05:58:09.835Z,6.39
2022-11-05T06:03:15.987Z,7.15
2022-11-05T06:08:22.079Z,6.53
2022-11-05T06:13:28.563Z,4.39
2022-11-05T06:18:34.693Z,6.72
2022-11-05T06:23:40.943Z,5.52
2022-11-05T06:28:47.056Z,6.51
2022-11-05T06:33:53.290Z,8.37
2022-11-05T06:38:59.342Z,7.94
2022-11-05T06:44:05.530Z,6.20
2022-11-05T06:49:11.647Z,6.92
2022-11-05T06:54:18.945Z,9.62
2022-11-05T06:59:25.079Z,9.23
2022-11-05T07:04:31.240Z,8.36
2022-11-05T07:09:37.294Z,7.15
2022-11-05T07:14:43.899Z,8.41
2022-11-05T07:19:49.973Z,8.32
2022-11-05T07:24:56.127Z,9.66
2022-11-05T07:30:02.194Z,8.39
2022-11-05T07:35:08.467Z,6.94
2022-11-05T07:40:14.847Z,7.00
2022-11-05T07:45:21.061Z,8.21
2022-11-05T07:50:27.598Z,10.73
2022-11-05T07:55:34.024Z,6.86
2022-11-05T08:00:40.204Z,9.73
2022-11-05T08:05:46.287Z,7.80
2022-11-05T08:10:52.322Z,7.26
2022-11-05T08:15:58.506Z,8.77
2022-11-05T08:21:04.584Z,9.43
2022-11-05T08:26:10.705Z,5.95
2022-11-05T08:31:16.764Z,7.51
2022-11-05T08:36:23.224Z,9.09
2022-11-05T08:41:29.320Z,7.93
2022-11-05T08:46:40.374Z,9.04
2022-11-05T08:51:41.109Z,7.17
2022-11-05T08:56:47.571Z,6.76
2022-11-05T09:01:53.836Z,5.97
2022-11-05T09:06:59.831Z,6.68
2022-11-05T09:12:12.255Z,6.65
2022-11-05T09:17:11.827Z,5.80
2022-11-05T09:22:17.927Z,4.52
2022-11-05T09:27:24.063Z,6.02
2022-11-05T09:32:30.221Z,6.57
2022-11-05T09:37:36.450Z,7.27
2022-11-05T09:42:42.548Z,6.05
2022-11-05T09:47:48.702Z,5.60
2022-11-05T09:52:54.862Z,5.83
2022-11-05T09:58:01.052Z,7.12
2022-11-05T10:03:10.470Z,6.48
2022-11-05T10:08:15.964Z,6.83
2022-11-05T10:13:22.031Z,7.06
2022-11-05T10:18:42.213Z,5.53
2022-11-05T10:23:48.327Z,6.00
2022-11-05T10:28:54.557Z,6.19
2022-11-05T10:34:00.712Z,5.80
2022-11-05T10:39:07.720Z,5.34
2022-11-05T10:44:18.674Z,5.76
2022-11-05T10:49:19.578Z,8.83
2022-11-05T10:54:25.721Z,6.73
2022-11-05T10:59:32.022Z,7.51
2022-11-05T11:04:38.394Z,6.58
2022-11-05T11:09:44.509Z,6.52
2022-11-05T11:14:50.638Z,7.06
2022-11-05T11:19:56.789Z,7.12
2022-11-05T11:25:03.169Z,6.19
2022-11-05T11:30:09.522Z,5.42
2022-11-05T11:35:15.650Z,7.39
2022-11-05T11:40:22.242Z,7.84
2022-11-05T11:45:28.304Z,7.29
2022-11-05T11:50:34.576Z,6.66
2022-11-05T11:55:40.687Z,6.60
2022-11-05T12:00:47.030Z,5.52
2022-11-05T12:05:53.117Z,5.67
2022-11-05T12:10:59.274Z,6.15
2022-11-05T12:16:05.362Z,6.26
2022-11-05T12:21:11.653Z,5.80
2022-11-05T12:26:17.794Z,5.49
2022-11-05T12:31:24.026Z,5.77
2022-11-05T12:36:30.514Z,5.75
2022-11-05T12:41:36.827Z,7.46
2022-11-05T12:46:43.291Z,5.08
2022-11-05T12:51:49.449Z,5.87
2022-11-05T12:56:55.605Z,6.86
2022-11-05T13:02:02.119Z,6.54
2022-11-05T13:07:07.963Z,7.65
2022-11-05T13:12:14.211Z,7.64
2022-11-05T13:17:20.852Z,5.95
2022-11-05T13:22:27.636Z,6.06
2022-11-05T13:27:34.138Z,7.86
2022-11-05T13:32:40.308Z,5.31
2022-11-05T13:37:46.352Z,7.44
2022-11-05T13:42:52.604Z,7.20
2022-11-05T13:47:58.779Z,5.79
2022-11-05T13:53:04.920Z,6.19
2022-11-05T13:58:10.991Z,4.93
2022-11-05T14:03:17.203Z,7.09
2022-11-05T14:08:23.349Z,5.02
2022-11-05T14:13:29.728Z,4.65
2022-11-05T14:18:35.843Z,5.58
2022-11-05T14:23:42.027Z,6.44
2022-11-05T14:28:48.936Z,4.06
2022-11-05T14:33:56.455Z,4.97
2022-11-05T14:39:04.387Z,6.40
2022-11-05T14:44:07.751Z,6.67
2022-11-05T14:49:13.806Z,7.06
2022-11-05T14:54:20.144Z,7.10
2022-11-05T14:59:26.231Z,5.88
2022-11-05T15:04:32.503Z,7.07
2022-11-05T15:09:38.576Z,8.14
2022-11-05T15:14:44.770Z,7.73
2022-11-05T15:19:50.835Z,7.73
2022-11-05T15:24:57.144Z,7.64
2022-11-05T15:30:03.605Z,5.64
2022-11-05T15:35:09.816Z,7.91
2022-11-05T15:40:16.123Z,7.83
2022-11-05T15:45:22.319Z,8.03
2022-11-05T15:50:28.379Z,7.49
2022-11-05T15:55:34.541Z,7.64
2022-11-05T16:00:40.698Z,7.56
2022-11-05T16:05:46.916Z,11.77
2022-11-05T16:10:53.018Z,8.46
2022-11-05T16:15:59.233Z,7.68
2022-11-05T16:21:05.341Z,12.84
2022-11-05T16:26:11.643Z,8.05
2022-11-05T16:31:17.699Z,9.39
2022-11-05T16:36:23.858Z,9.16
2022-11-05T16:41:29.956Z,11.21
2022-11-05T16:46:36.188Z,9.15
2022-11-05T16:51:42.653Z,8.83
2022-11-05T16:56:48.822Z,11.02
2022-11-05T17:01:55.978Z,9.79
2022-11-05T17:07:00.747Z,10.07
2022-11-05T17:12:06.923Z,8.27
2022-11-05T17:17:13.422Z,9.46
2022-11-05T17:22:19.497Z,8.85
2022-11-05T17:27:25.694Z,9.17
2022-11-05T17:37:36.867Z,9.39
2022-11-05T17:42:42.939Z,9.27
2022-11-05T17:47:49.129Z,8.79
2022-11-05T17:52:55.252Z,9.24
2022-11-05T17:58:01.876Z,11.77
2022-11-05T18:03:07.955Z,10.91
2022-11-05T18:08:14.552Z,9.16
2022-11-05T18:13:20.696Z,10.09
2022-11-05T18:18:26.920Z,9.12
2022-11-05T18:23:32.952Z,10.02
2022-11-05T18:28:39.251Z,10.64
2022-11-05T18:33:45.710Z,9.96
2022-11-05T18:38:51.940Z,9.99
2022-11-05T18:43:57.990Z,9.30
2022-11-05T18:49:04.241Z,11.35
2022-11-05T18:54:10.327Z,9.89
2022-11-05T18:59:35.281Z,8.64
2022-11-05T19:04:22.974Z,8.58
2022-11-05T19:09:29.140Z,10.21
2022-11-05T19:14:35.258Z,11.79
2022-11-05T19:19:41.476Z,9.35
2022-11-05T19:24:47.546Z,8.29
2022-11-05T19:29:53.738Z,10.42
2022-11-05T19:35:00.199Z,7.82
2022-11-05T19:40:06.730Z,11.56
2022-11-05T19:45:38.150Z,13.91
2022-11-05T19:50:18.533Z,12.42
2022-11-05T19:56:19.633Z,10.96
2022-11-05T20:01:25.922Z,9.05
2022-11-05T20:06:31.922Z,7.81
2022-11-05T20:11:38.179Z,11.05
2022-11-05T20:16:44.352Z,12.80
2022-11-05T20:21:50.639Z,11.37
2022-11-05T20:26:57.033Z,11.36
2022-11-05T20:32:03.197Z,13.31
2022-11-05T20:37:09.446Z,9.90
2022-11-05T20:42:15.748Z,10.17
2022-11-05T20:47:21.808Z,10.86
2022-11-05T20:52:28.338Z,9.82
2022-11-05T20:57:34.474Z,15.02
2022-11-05T21:02:40.864Z,11.23
2022-11-05T21:07:47.143Z,12.80
2022-11-05T21:12:53.385Z,10.88
2022-11-05T21:17:59.510Z,8.98
2022-11-05T21:23:05.750Z,9.51
2022-11-05T21:28:12.252Z,10.23
2022-11-05T21:33:17.911Z,9.96
2022-11-05T21:38:24.050Z,10.98
2022-11-05T21:43:30.239Z,9.86
2022-11-05T21:48:36.389Z,11.19
2022-11-05T21:53:42.684Z,12.45
2022-11-05T21:58:49.467Z,10.60
2022-11-05T22:03:57.619Z,11.15
2022-11-05T22:08:59.683Z,11.96
2022-11-05T22:14:06.372Z,8.81
2022-11-05T22:19:12.866Z,8.09
2022-11-05T22:24:19.440Z,8.91
2022-11-05T22:29:25.528Z,9.72
2022-11-05T22:34:31.979Z,10.09
2022-11-05T22:39:38.359Z,9.88
2022-11-05T22:44:44.561Z,9.27
2022-11-05T22:49:50.697Z,8.75
2022-11-05T22:54:56.983Z,8.13
2022-11-05T23:00:03.098Z,9.56
2022-11-05T23:05:10.019Z,7.54
2022-11-05T23:10:16.138Z,7.88
2022-11-05T23:15:22.324Z,9.70
2022-11-05T23:20:28.409Z,12.27
2022-11-05T23:25:34.715Z,9.89
2022-11-05T23:30:40.854Z,12.98
2022-11-05T23:35:47.430Z,9.19
2022-11-05T23:40:53.510Z,7.90
2022-11-05T23:46:00.439Z,10.27
2022-11-05T23:51:06.948Z,10.95
2022-11-05T23:56:13.329Z,9.48
